Time;durP1;ratioP1;P1;durP2;ratioP2;P2;SDS_P1;SDS_P2;PMS_P1;PMS_P2;Temp;Humidity;BMP_temperature;BMP_pressure;BME280_temperature;BME280_humidity;BME280_pressure;Samples;Min_cycle;Max_cycle;Signal;HPM_P1;HPM_P2
2021/08/02 00:01:02;;;;;;;2.65;2.42;;;18.20;71.60;;;;;;4996276;28;20187;-91
2021/08/02 00:03:51;;;;;;;4.35;2.70;;;18.40;70.60;;;;;;4996337;28;20206;-91
2021/08/02 00:06:27;;;;;;;8.20;2.92;;;18.20;72.80;;;;;;4996213;28;20171;-91
2021/08/02 00:09:15;;;;;;;4.90;2.67;;;18.00;72.60;;;;;;4996412;28;20180;-91
2021/08/02 00:12:04;;;;;;;4.13;2.17;;;18.20;71.90;;;;;;4995927;28;20198;-91
2021/08/02 00:14:30;;;;;;;5.80;3.00;;;18.10;70.80;;;;;;4996220;28;20195;-91
2021/08/02 00:16:57;;;;;;;4.38;2.40;;;18.10;71.80;;;;;;4996449;28;20276;-91
2021/08/02 00:19:23;;;;;;;7.68;2.90;;;18.10;71.70;;;;;;4996037;28;20238;-91
2021/08/02 00:21:50;;;;;;;4.97;2.67;;;18.10;72.20;;;;;;4995981;28;20330;-91
2021/08/02 00:24:18;;;;;;;3.65;2.80;;;18.30;71.50;;;;;;4995938;28;20179;-91
2021/08/02 00:26:44;;;;;;;7.35;2.88;;;18.20;72.00;;;;;;4996104;28;20210;-91
2021/08/02 00:29:11;;;;;;;7.85;3.17;;;18.30;71.90;;;;;;4996091;28;20194;-91
2021/08/02 00:31:37;;;;;;;6.20;3.10;;;18.10;73.50;;;;;;4997002;28;20314;-92
2021/08/02 00:34:03;;;;;;;15.27;3.90;;;18.00;75.60;;;;;;4996329;28;20220;-91
2021/08/02 00:36:35;;;;;;;6.90;3.00;;;17.80;76.20;;;;;;4995921;28;20216;-92
2021/08/02 00:39:15;;;;;;;4.82;2.67;;;17.70;77.60;;;;;;4995653;28;20274;-91
2021/08/02 00:42:28;;;;;;;4.28;3.15;;;17.60;78.90;;;;;;4995933;28;20546;-91
2021/08/02 00:45:20;;;;;;;7.03;3.55;;;17.40;80.00;;;;;;5008652;28;20199;-91
2021/08/02 00:47:49;;;;;;;13.70;3.63;;;17.40;80.80;;;;;;4996686;28;20172;-91
2021/08/02 00:50:26;;;;;;;5.20;3.45;;;17.40;81.50;;;;;;4996072;28;20218;-91
2021/08/02 00:52:55;;;;;;;7.32;3.55;;;17.40;81.70;;;;;;4996185;28;20230;-91
2021/08/02 00:55:21;;;;;;;9.88;3.78;;;17.40;81.70;;;;;;4994974;28;20274;-91
2021/08/02 00:57:49;;;;;;;5.40;2.92;;;17.50;81.80;;;;;;4995432;28;20168;-91
2021/08/02 01:00:17;;;;;;;8.85;4.32;;;17.60;81.80;;;;;;4995459;28;20274;-91
2021/08/02 01:02:47;;;;;;;7.22;4.30;;;17.70;81.50;;;;;;5010916;28;20218;-91
2021/08/02 01:05:14;;;;;;;8.98;4.00;;;17.70;81.70;;;;;;4995433;28;20669;-91
2021/08/02 01:08:01;;;;;;;7.32;3.67;;;17.60;81.90;;;;;;4995241;28;20197;-91
2021/08/02 01:10:31;;;;;;;8.25;4.28;;;17.40;82.30;;;;;;4995414;28;20186;-91
2021/08/02 01:13:05;;;;;;;6.82;3.75;;;17.50;83.40;;;;;;4997693;28;20233;-91
2021/08/02 01:15:33;;;;;;;11.05;4.18;;;17.60;83.20;;;;;;4994834;28;20181;-91
2021/08/02 01:18:00;;;;;;;7.40;4.07;;;17.50;82.70;;;;;;4995477;28;20171;-91
2021/08/02 01:20:30;;;;;;;8.20;4.07;;;17.40;82.90;;;;;;4994831;28;20541;-91
2021/08/02 01:22:58;;;;;;;12.13;3.85;;;17.50;83.20;;;;;;4994904;28;20199;-91
2021/08/02 01:25:39;;;;;;;5.95;3.90;;;17.50;83.30;;;;;;4995212;28;20211;-91
2021/08/02 01:28:14;;;;;;;4.50;3.83;;;17.50;82.80;;;;;;4994913;28;20182;-92
2021/08/02 01:30:44;;;;;;;4.97;3.90;;;17.60;80.40;;;;;;4996636;28;20175;-91
2021/08/02 01:33:11;;;;;;;9.70;4.45;;;17.60;79.60;;;;;;4994711;28;20231;-92
2021/08/02 01:35:38;;;;;;;3.45;3.17;;;17.50;80.20;;;;;;4995142;28;20207;-91
2021/08/02 01:38:04;;;;;;;14.13;4.32;;;17.50;80.80;;;;;;4994562;28;20543;-92
2021/08/02 01:40:31;;;;;;;3.20;2.90;;;17.60;79.00;;;;;;5008263;28;20183;-91
2021/08/02 01:42:57;;;;;;;9.98;3.70;;;17.50;79.20;;;;;;4994990;28;20198;-91
2021/08/02 01:45:24;;;;;;;9.30;3.63;;;17.50;80.10;;;;;;4994373;28;20186;-91
2021/08/02 01:48:27;;;;;;;8.18;3.47;;;17.50;79.50;;;;;;4994575;28;20186;-91
2021/08/02 01:51:11;;;;;;;6.00;3.22;;;17.40;79.80;;;;;;4994743;28;20677;-91
2021/08/02 01:53:59;;;;;;;9.35;3.88;;;17.40;80.00;;;;;;4994232;28;20294;-91
2021/08/02 01:56:29;;;;;;;8.05;3.42;;;17.30;80.40;;;;;;4994999;28;20242;-92
2021/08/02 01:59:06;;;;;;;6.00;3.17;;;17.40;78.50;;;;;;4994351;28;20179;-91
2021/08/02 02:01:34;;;;;;;7.75;3.67;;;17.30;79.10;;;;;;4994608;28;20187;-92
2021/08/02 02:04:03;;;;;;;7.15;3.40;;;17.50;78.30;;;;;;4994192;28;20175;-90
2021/08/02 02:06:40;;;;;;;5.13;3.78;;;17.60;78.10;;;;;;5007314;28;20183;-91
2021/08/02 02:09:09;;;;;;;11.75;4.55;;;17.50;76.60;;;;;;5000991;28;20173;-91
2021/08/02 02:11:40;;;;;;;7.78;3.70;;;17.40;76.50;;;;;;4996153;28;20222;-91
2021/08/02 02:14:08;;;;;;;8.77;3.50;;;17.40;77.20;;;;;;4995399;28;20580;-91
2021/08/02 02:16:39;;;;;;;8.32;2.97;;;17.40;76.50;;;;;;4997028;28;20302;-91
2021/08/02 02:19:07;;;;;;;7.80;4.20;;;17.40;77.00;;;;;;4994885;28;20171;-91
2021/08/02 02:21:34;;;;;;;7.00;3.83;;;17.40;77.70;;;;;;4993457;28;20681;-91
2021/08/02 02:24:01;;;;;;;6.55;3.13;;;17.20;77.60;;;;;;4993808;28;20251;-91
2021/08/02 02:26:31;;;;;;;4.88;3.50;;;17.30;77.40;;;;;;4993911;28;20237;-91
2021/08/02 02:28:59;;;;;;;7.25;3.78;;;17.20;77.80;;;;;;4994018;28;20179;-91
2021/08/02 02:31:26;;;;;;;8.00;3.10;;;17.30;78.70;;;;;;4993250;28;20277;-91
2021/08/02 02:36:58;;;;;;;9.90;3.33;;;17.30;79.20;;;;;;4998369;28;20282;-92
2021/08/02 02:39:26;;;;;;;16.75;3.85;;;17.50;77.10;;;;;;4977280;28;20274;-91
2021/08/02 02:41:54;;;;;;;5.57;3.60;;;17.60;76.00;;;;;;4978743;28;20203;-91
2021/08/02 02:44:21;;;;;;;4.95;3.30;;;17.50;76.60;;;;;;4976819;28;20187;-91
2021/08/02 02:46:48;;;;;;;6.10;3.00;;;17.50;76.30;;;;;;4976981;28;20179;-91
2021/08/02 02:49:14;;;;;;;8.95;3.25;;;17.50;76.40;;;;;;4976734;28;20179;-91
2021/08/02 02:51:43;;;;;;;5.40;3.35;;;17.50;77.30;;;;;;4976798;28;20267;-91
2021/08/02 02:54:09;;;;;;;8.98;3.38;;;17.60;77.00;;;;;;4980602;28;20198;-91
2021/08/02 02:56:35;;;;;;;8.73;3.77;;;17.40;77.30;;;;;;4980195;28;20698;-91
2021/08/02 02:59:01;;;;;;;7.70;2.85;;;17.30;77.50;;;;;;4981078;28;20584;-91
2021/08/02 03:01:37;;;;;;;3.20;2.60;;;17.30;77.50;;;;;;4981108;28;20619;-91
2021/08/02 03:04:05;;;;;;;8.35;3.92;;;17.30;77.60;;;;;;4982619;28;20467;-91
2021/08/02 03:06:32;;;;;;;3.80;3.28;;;17.40;78.00;;;;;;4985731;28;20187;-91
2021/08/02 03:08:58;;;;;;;6.65;3.00;;;17.40;78.50;;;;;;5000658;28;20179;-91
2021/08/02 03:11:24;;;;;;;9.88;3.17;;;17.30;78.70;;;;;;5009199;28;20187;-91
2021/08/02 03:13:50;;;;;;;9.18;2.63;;;17.30;78.70;;;;;;5007147;28;20287;-91
2021/08/02 03:16:18;;;;;;;7.82;2.83;;;17.50;77.00;;;;;;5006121;28;20206;-92
2021/08/02 03:18:44;;;;;;;6.80;3.40;;;17.50;76.80;;;;;;5004973;28;20195;-91
2021/08/02 03:21:12;;;;;;;7.30;4.67;;;17.30;78.50;;;;;;5008685;28;20190;-90
2021/08/02 03:23:57;;;;;;;5.40;3.33;;;17.30;79.50;;;;;;5002186;28;20569;-91
2021/08/02 03:26:35;;;;;;;16.67;3.88;;;17.30;79.60;;;;;;4994336;28;20184;-91
2021/08/02 03:29:09;;;;;;;7.65;4.07;;;17.30;79.80;;;;;;4995376;28;20167;-91
2021/08/02 03:31:41;;;;;;;12.52;3.63;;;17.30;80.20;;;;;;5004800;28;20274;-92
2021/08/02 03:34:10;;;;;;;7.20;3.35;;;17.20;80.10;;;;;;4993066;28;20186;-91
2021/08/02 03:36:37;;;;;;;9.07;3.45;;;17.00;81.00;;;;;;4994113;28;20223;-91
2021/08/02 03:39:02;;;;;;;6.35;3.45;;;17.00;81.80;;;;;;4992986;28;20243;-91
2021/08/02 03:41:29;;;;;;;8.30;3.70;;;16.90;81.80;;;;;;4992840;28;20229;-91
2021/08/02 03:43:56;;;;;;;9.05;4.22;;;17.00;81.60;;;;;;4993992;28;20178;-91
2021/08/02 03:46:23;;;;;;;8.38;3.65;;;17.10;79.20;;;;;;4992696;28;20183;-91
2021/08/02 03:48:49;;;;;;;6.65;2.90;;;17.10;79.20;;;;;;4994124;28;20294;-92
2021/08/02 03:51:15;;;;;;;3.83;2.50;;;17.20;78.80;;;;;;4991975;28;20195;-91
2021/08/02 03:53:48;;;;;;;6.83;2.70;;;16.90;76.20;;;;;;4992322;28;20203;-91
2021/08/02 03:56:15;;;;;;;3.40;3.10;;;16.70;74.80;;;;;;4992859;28;20678;-91
2021/08/02 03:58:41;;;;;;;4.55;2.35;;;16.60;75.70;;;;;;4992678;28;20229;-91
2021/08/02 04:01:08;;;;;;;2.83;2.10;;;16.60;76.80;;;;;;4993940;28;20175;-91
2021/08/02 04:03:34;;;;;;;3.35;2.40;;;16.50;77.50;;;;;;4992496;28;20318;-91
2021/08/02 04:06:01;;;;;;;3.50;2.10;;;16.40;77.40;;;;;;4992814;28;20210;-91
2021/08/02 04:08:27;;;;;;;5.15;2.53;;;16.40;78.30;;;;;;4993843;28;20187;-92
2021/08/02 04:10:53;;;;;;;4.32;2.17;;;16.30;79.00;;;;;;4992529;28;20726;-91
2021/08/02 04:13:19;;;;;;;3.63;2.30;;;16.30;79.50;;;;;;4993151;28;20226;-92
2021/08/02 04:15:47;;;;;;;3.47;2.90;;;16.30;79.50;;;;;;5006482;28;20262;-91
2021/08/02 04:18:13;;;;;;;3.35;2.58;;;16.30;79.10;;;;;;4993145;28;20415;-91
2021/08/02 04:20:38;;;;;;;4.82;2.65;;;16.40;79.50;;;;;;4994919;28;20210;-91
2021/08/02 04:23:04;;;;;;;4.47;2.83;;;16.50;79.50;;;;;;4995414;28;20226;-92
2021/08/02 04:25:30;;;;;;;4.33;3.50;;;16.60;79.70;;;;;;5008755;28;20181;-90
2021/08/02 04:27:55;;;;;;;8.40;3.33;;;16.60;80.20;;;;;;4996292;28;20674;-92
2021/08/02 04:30:21;;;;;;;12.00;4.90;;;16.70;81.10;;;;;;4996050;28;20274;-91
2021/08/02 04:32:48;;;;;;;5.07;3.67;;;16.60;82.00;;;;;;4997367;28;20206;-91
2021/08/02 04:35:14;;;;;;;7.20;2.90;;;16.60;81.40;;;;;;4996035;28;20183;-91
2021/08/02 04:37:40;;;;;;;6.40;3.60;;;16.50;82.00;;;;;;4996252;28;20207;-91
2021/08/02 04:40:07;;;;;;;7.22;4.00;;;16.50;82.60;;;;;;4995690;28;20530;-91
2021/08/02 04:42:37;;;;;;;4.68;3.72;;;16.50;82.80;;;;;;4995359;28;20544;-91
2021/08/02 04:45:04;;;;;;;5.93;3.80;;;16.70;82.60;;;;;;4995931;28;20270;-91
2021/08/02 04:47:31;;;;;;;7.85;3.50;;;16.70;82.50;;;;;;4995799;28;20183;-91
2021/08/02 04:49:56;;;;;;;6.55;3.30;;;16.70;82.50;;;;;;4995653;28;20218;-91
2021/08/02 04:52:22;;;;;;;5.27;3.40;;;16.80;82.40;;;;;;4995354;28;20336;-91
2021/08/02 04:54:48;;;;;;;8.03;4.13;;;16.90;82.40;;;;;;4995308;28;20208;-91
2021/08/02 04:57:13;;;;;;;9.23;4.23;;;17.00;81.70;;;;;;4995356;28;20211;-91
2021/08/02 04:59:39;;;;;;;7.70;3.10;;;17.10;81.20;;;;;;4995093;28;20542;-91
2021/08/02 05:02:06;;;;;;;6.18;3.88;;;17.00;81.10;;;;;;4994759;28;20205;-91
2021/08/02 05:04:32;;;;;;;4.72;3.55;;;16.90;81.60;;;;;;4995190;28;20286;-91
2021/08/02 05:06:58;;;;;;;3.83;3.15;;;17.10;81.90;;;;;;4995229;28;20531;-91
2021/08/02 05:09:24;;;;;;;6.15;3.38;;;17.20;81.20;;;;;;4995239;28;20282;-91
2021/08/02 05:11:53;;;;;;;6.30;3.10;;;17.30;79.90;;;;;;4994553;28;20290;-91
2021/08/02 05:14:19;;;;;;;6.22;3.65;;;17.50;78.80;;;;;;4995949;28;20210;-91
2021/08/02 05:16:45;;;;;;;5.73;3.73;;;17.50;78.10;;;;;;4995086;28;20317;-91
2021/08/02 05:19:12;;;;;;;6.93;3.70;;;17.60;77.50;;;;;;5002790;28;20429;-90
2021/08/02 05:21:38;;;;;;;8.98;3.55;;;17.60;77.40;;;;;;5017760;28;20243;-91
2021/08/02 05:24:04;;;;;;;3.30;3.00;;;17.70;77.60;;;;;;5004284;28;20274;-93
2021/08/02 05:26:30;;;;;;;4.70;3.28;;;17.80;77.40;;;;;;4995234;28;20517;-91
2021/08/02 05:28:56;;;;;;;4.90;3.37;;;17.80;77.30;;;;;;4996195;28;20172;-92
2021/08/02 05:31:22;;;;;;;5.90;3.00;;;17.90;76.50;;;;;;4994091;28;20418;-91
2021/08/02 05:33:47;;;;;;;3.63;2.70;;;18.00;76.30;;;;;;4994988;28;20237;-91
2021/08/02 05:36:13;;;;;;;4.23;2.73;;;18.00;76.20;;;;;;4994634;28;20203;-91
2021/08/02 05:38:42;;;;;;;3.50;3.20;;;18.10;75.90;;;;;;4994803;28;20171;-91
2021/08/02 05:41:08;;;;;;;5.72;2.65;;;18.10;75.60;;;;;;4995041;28;20613;-92
2021/08/02 05:43:34;;;;;;;4.32;2.65;;;18.10;75.10;;;;;;4994188;28;20203;-91
2021/08/02 05:46:00;;;;;;;5.32;2.17;;;18.10;75.30;;;;;;4995442;28;20175;-91
2021/08/02 05:48:26;;;;;;;4.73;2.30;;;18.30;72.80;;;;;;4994437;28;20650;-91
2021/08/02 05:50:51;;;;;;;3.30;2.40;;;18.40;71.60;;;;;;4994914;28;20623;-92
2021/08/02 05:53:17;;;;;;;4.10;1.93;;;18.60;71.10;;;;;;4994534;28;20821;-91
2021/08/02 05:55:43;;;;;;;3.03;2.10;;;18.60;70.80;;;;;;4994733;28;20197;-91
2021/08/02 05:58:10;;;;;;;3.17;2.20;;;18.60;71.20;;;;;;4995561;28;20433;-91
2021/08/02 06:00:36;;;;;;;2.92;2.58;;;18.80;69.80;;;;;;4994821;28;20180;-91
2021/08/02 06:03:02;;;;;;;3.40;1.80;;;18.90;69.00;;;;;;4994198;28;20543;-92
2021/08/02 06:05:27;;;;;;;3.17;2.00;;;19.10;69.00;;;;;;4994615;28;20203;-91
2021/08/02 06:07:53;;;;;;;3.20;2.33;;;19.30;67.90;;;;;;4993898;28;20198;-92
2021/08/02 06:10:18;;;;;;;7.77;2.47;;;19.40;67.20;;;;;;4994879;28;20231;-92
2021/08/02 06:12:44;;;;;;;3.97;2.03;;;19.50;67.80;;;;;;4993540;28;20242;-92
2021/08/02 06:15:11;;;;;;;5.93;2.60;;;19.60;68.30;;;;;;4994175;28;20175;-92
2021/08/02 06:17:37;;;;;;;2.08;1.80;;;19.70;67.40;;;;;;5000849;28;20682;-92
2021/08/02 06:20:04;;;;;;;2.58;1.80;;;19.80;66.90;;;;;;4994363;28;20642;-92
2021/08/02 06:22:30;;;;;;;2.17;2.00;;;19.90;66.00;;;;;;4994047;28;20539;-92
2021/08/02 06:24:56;;;;;;;2.67;2.40;;;19.90;66.20;;;;;;4998053;28;20185;-92
2021/08/02 06:27:22;;;;;;;3.37;2.20;;;19.90;66.50;;;;;;4994208;28;20204;-92
2021/08/02 06:29:48;;;;;;;3.13;2.10;;;19.90;65.90;;;;;;4994854;28;20410;-92
2021/08/02 06:32:13;;;;;;;2.77;1.93;;;20.00;64.90;;;;;;4993475;28;20975;-92
2021/08/02 06:34:39;;;;;;;7.03;2.13;;;20.10;64.00;;;;;;4994812;28;20172;-92
2021/08/02 06:37:05;;;;;;;5.73;2.67;;;20.30;63.20;;;;;;4994199;28;20221;-93
2021/08/02 06:39:30;;;;;;;5.17;2.63;;;20.10;64.50;;;;;;4994173;28;20627;-92
2021/08/02 06:41:56;;;;;;;4.10;2.37;;;19.80;65.40;;;;;;4994537;28;20290;-92
2021/08/02 06:44:22;;;;;;;6.20;2.90;;;19.80;66.40;;;;;;4996911;28;20183;-92
2021/08/02 06:46:47;;;;;;;5.23;2.87;;;20.00;66.70;;;;;;4998539;28;20183;-92
2021/08/02 06:49:13;;;;;;;3.53;2.63;;;20.30;66.10;;;;;;4995461;28;20341;-92
2021/08/02 06:51:39;;;;;;;6.97;3.23;;;20.50;64.00;;;;;;4993649;28;20201;-92
2021/08/02 06:54:04;;;;;;;3.17;2.33;;;20.50;64.60;;;;;;4994794;28;20183;-91
2021/08/02 06:56:30;;;;;;;4.70;3.43;;;20.50;64.90;;;;;;4993925;28;20203;-92
2021/08/02 06:58:56;;;;;;;3.40;2.87;;;20.50;65.60;;;;;;4993631;28;20230;-92
2021/08/02 07:01:21;;;;;;;3.33;2.70;;;20.60;65.50;;;;;;4993834;28;20183;-92
2021/08/02 07:03:47;;;;;;;9.10;2.87;;;20.80;62.40;;;;;;4993448;28;20203;-92
2021/08/02 07:06:13;;;;;;;4.83;2.47;;;21.10;61.10;;;;;;4993780;28;20252;-91
2021/08/02 07:08:38;;;;;;;5.00;2.23;;;21.30;60.90;;;;;;4993503;28;20187;-92
2021/08/02 07:11:06;;;;;;;2.83;2.30;;;21.70;58.90;;;;;;4993924;28;20221;-91
2021/08/02 07:13:33;;;;;;;4.60;1.93;;;21.70;57.30;;;;;;5000895;28;20478;-92
2021/08/02 07:16:00;;;;;;;4.63;1.83;;;21.80;57.20;;;;;;4993084;28;20847;-92
2021/08/02 07:18:27;;;;;;;3.97;2.57;;;22.00;58.60;;;;;;4994280;28;20425;-92
2021/08/02 07:20:53;;;;;;;4.47;3.10;;;22.00;60.00;;;;;;4993242;28;20438;-91
2021/08/02 07:23:19;;;;;;;7.70;4.10;;;22.00;60.40;;;;;;4993468;28;20557;-92
2021/08/02 07:25:45;;;;;;;7.80;4.70;;;22.00;60.50;;;;;;4996119;28;20555;-92
2021/08/02 07:28:10;;;;;;;7.20;2.83;;;22.00;60.20;;;;;;4998025;28;20414;-92
2021/08/02 07:30:36;;;;;;;3.40;2.20;;;22.40;59.50;;;;;;5007401;28;20569;-92
2021/08/02 07:33:02;;;;;;;3.83;2.13;;;22.50;58.50;;;;;;4993333;28;20202;-92
2021/08/02 07:35:28;;;;;;;1.60;1.50;;;22.70;58.00;;;;;;4993542;28;20661;-92
2021/08/02 07:37:54;;;;;;;7.33;1.30;;;22.80;54.50;;;;;;4993780;28;20430;-92
2021/08/02 07:40:20;;;;;;;7.23;1.40;;;22.60;52.70;;;;;;4993719;28;20410;-92
2021/08/02 07:42:46;;;;;;;2.77;1.50;;;22.20;53.00;;;;;;4993355;28;20194;-92
2021/08/02 07:45:12;;;;;;;3.13;1.47;;;22.00;53.90;;;;;;4993734;28;20179;-92
2021/08/02 07:47:38;;;;;;;4.83;1.60;;;21.80;53.00;;;;;;4992969;28;20940;-92
2021/08/02 07:50:05;;;;;;;2.87;1.30;;;21.70;54.10;;;;;;4994373;28;20461;-92
2021/08/02 07:52:31;;;;;;;2.00;1.50;;;21.90;55.50;;;;;;4992633;28;20466;-92
2021/08/02 07:55:01;;;;;;;3.33;1.37;;;21.70;53.30;;;;;;4993998;28;20425;-92
2021/08/02 07:57:30;;;;;;;6.03;1.90;;;21.50;53.40;;;;;;4998411;28;20527;-92
2021/08/02 07:59:56;;;;;;;1.50;1.20;;;21.40;55.50;;;;;;4996840;28;20422;-91
2021/08/02 08:02:22;;;;;;;8.60;1.53;;;21.40;55.00;;;;;;4996940;28;20469;-92
2021/08/02 08:04:48;;;;;;;4.07;2.07;;;21.30;55.10;;;;;;4997682;28;20190;-92
2021/08/02 08:07:14;;;;;;;4.83;1.83;;;21.10;56.20;;;;;;5004067;28;20422;-92
2021/08/02 08:09:40;;;;;;;3.60;1.97;;;21.00;55.50;;;;;;5005375;28;20441;-92
2021/08/02 08:12:05;;;;;;;3.97;1.70;;;21.00;57.00;;;;;;4995674;28;20438;-91
2021/08/02 08:14:31;;;;;;;5.30;1.67;;;21.30;55.80;;;;;;4996470;28;20535;-91
2021/08/02 08:16:57;;;;;;;5.00;2.00;;;21.30;56.20;;;;;;4995812;28;20465;-92
2021/08/02 08:19:23;;;;;;;4.43;1.50;;;21.20;56.20;;;;;;4995903;28;20508;-92
2021/08/02 08:21:49;;;;;;;4.33;1.83;;;21.50;55.20;;;;;;4996107;28;20303;-92
2021/08/02 08:24:14;;;;;;;12.53;1.87;;;21.50;53.10;;;;;;4995549;28;20445;-92
2021/08/02 08:26:40;;;;;;;2.40;1.30;;;21.60;52.50;;;;;;4996061;28;20583;-92
2021/08/02 08:29:06;;;;;;;2.50;1.50;;;21.40;54.10;;;;;;4995799;28;20445;-92
2021/08/02 08:31:33;;;;;;;3.40;1.60;;;21.40;53.80;;;;;;4995008;28;20224;-91
2021/08/02 08:33:58;;;;;;;2.00;1.30;;;21.50;53.00;;;;;;5007191;28;20263;-92
2021/08/02 08:36:24;;;;;;;5.93;1.93;;;21.50;53.20;;;;;;4997953;28;20454;-92
2021/08/02 08:38:50;;;;;;;3.43;1.37;;;21.50;53.50;;;;;;4996116;28;20183;-92
2021/08/02 08:41:18;;;;;;;5.87;1.67;;;21.70;52.10;;;;;;4996118;28;20214;-92
2021/08/02 08:43:44;;;;;;;3.90;1.67;;;21.60;52.80;;;;;;4995586;28;20522;-92
2021/08/02 08:46:10;;;;;;;3.10;1.50;;;21.10;53.10;;;;;;4996214;28;20430;-92
2021/08/02 08:48:35;;;;;;;4.03;1.63;;;21.60;51.90;;;;;;4995473;28;20183;-92
2021/08/02 08:51:05;;;;;;;5.23;1.77;;;22.00;51.20;;;;;;4995731;28;20571;-92
2021/08/02 08:53:32;;;;;;;6.03;1.83;;;22.10;50.90;;;;;;4995526;28;20290;-92
2021/08/02 08:55:58;;;;;;;9.53;2.53;;;21.70;51.40;;;;;;4995223;28;20549;-91
2021/08/02 08:58:23;;;;;;;2.10;1.20;;;21.60;51.60;;;;;;4996059;28;20474;-92
2021/08/02 09:00:58;;;;;;;4.07;1.70;;;21.20;51.70;;;;;;4995427;28;20270;-92
2021/08/02 09:03:24;;;;;;;8.57;1.57;;;21.60;51.00;;;;;;5006552;28;20214;-92
2021/08/02 09:06:06;;;;;;;4.37;1.50;;;21.90;49.80;;;;;;5000150;28;20430;-91
2021/08/02 09:08:43;;;;;;;2.73;1.60;;;22.40;48.20;;;;;;4995239;28;20458;-91
2021/08/02 09:11:15;;;;;;;1.53;1.20;;;22.30;46.70;;;;;;4995315;28;20521;-92
2021/08/02 09:13:41;;;;;;;5.53;1.50;;;22.50;47.90;;;;;;4994798;28;20526;-92
2021/08/02 09:16:38;;;;;;;2.90;1.50;;;22.70;47.30;;;;;;4994903;28;20552;-92
2021/08/02 09:19:07;;;;;;;2.73;1.40;;;22.80;47.00;;;;;;4996728;28;20190;-91
2021/08/02 09:21:40;;;;;;;3.73;1.57;;;23.00;46.70;;;;;;4994377;28;20418;-92
2021/08/02 09:24:05;;;;;;;4.33;1.40;;;23.10;47.10;;;;;;4995416;28;20430;-92
2021/08/02 09:26:33;;;;;;;22.20;5.60;;;23.30;48.30;;;;;;4994933;28;20506;-92
2021/08/02 09:28:59;;;;;;;5.53;2.20;;;23.40;49.30;;;;;;4994981;28;20643;-92
2021/08/02 09:31:40;;;;;;;10.20;1.60;;;23.40;48.00;;;;;;4995475;28;20419;-92
2021/08/02 09:34:08;;;;;;;2.07;1.47;;;23.40;47.60;;;;;;4995679;28;20932;-92
2021/08/02 09:36:41;;;;;;;4.00;1.53;;;23.60;48.70;;;;;;4997018;28;20476;-92
2021/08/02 09:39:13;;;;;;;6.53;1.90;;;23.40;49.40;;;;;;5008061;28;20502;-92
2021/08/02 09:41:39;;;;;;;2.23;1.70;;;23.00;49.20;;;;;;4995080;28;20439;-92
2021/08/02 09:44:06;;;;;;;1.70;1.60;;;22.90;50.90;;;;;;4995476;28;20764;-92
2021/08/02 09:46:33;;;;;;;5.50;2.53;;;23.10;50.10;;;;;;4995082;28;20411;-92
2021/08/02 09:49:04;;;;;;;4.70;2.10;;;23.20;49.40;;;;;;4995414;28;20436;-92
2021/08/02 09:51:42;;;;;;;5.23;1.93;;;23.30;49.10;;;;;;4995552;28;20488;-92
2021/08/02 09:54:08;;;;;;;8.50;3.43;;;23.00;48.50;;;;;;4995568;28;20422;-92
2021/08/02 09:56:36;;;;;;;2.07;1.83;;;23.10;48.90;;;;;;4994997;28;20993;-92
2021/08/02 09:59:05;;;;;;;5.13;2.00;;;23.20;49.00;;;;;;5004880;28;20430;-90
2021/08/02 10:01:30;;;;;;;6.60;2.07;;;23.50;50.00;;;;;;5003770;28;20529;-92
2021/08/02 10:03:56;;;;;;;1.93;1.70;;;23.70;50.00;;;;;;4994322;28;20907;-92
2021/08/02 10:06:22;;;;;;;2.70;2.33;;;23.90;49.20;;;;;;4993908;28;20716;-92
2021/08/02 10:08:48;;;;;;;4.17;2.50;;;23.70;48.10;;;;;;4994177;28;20441;-92
2021/08/02 10:11:13;;;;;;;3.93;2.17;;;22.90;46.90;;;;;;4993726;28;20542;-93
2021/08/02 10:13:42;;;;;;;2.53;2.20;;;23.20;48.10;;;;;;4995158;28;20277;-92
2021/08/02 10:16:16;;;;;;;4.90;2.40;;;23.00;48.60;;;;;;4996865;28;20210;-92
2021/08/02 10:18:50;;;;;;;6.83;2.83;;;22.90;50.50;;;;;;4999405;28;20427;-92
2021/08/02 10:21:17;;;;;;;10.53;2.40;;;22.60;50.30;;;;;;4993564;28;20508;-92
2021/08/02 10:23:43;;;;;;;6.77;2.90;;;22.80;49.50;;;;;;4993215;28;20541;-92
2021/08/02 10:26:21;;;;;;;3.10;2.10;;;22.80;50.00;;;;;;4994185;28;20579;-92
2021/08/02 10:28:58;;;;;;;4.07;2.30;;;23.10;50.30;;;;;;4993209;28;20452;-92
2021/08/02 10:31:26;;;;;;;3.93;2.23;;;23.40;49.40;;;;;;4992975;28;20831;-92
2021/08/02 10:33:54;;;;;;;3.40;2.97;;;23.80;49.10;;;;;;4993588;28;20521;-92
2021/08/02 10:36:21;;;;;;;2.63;2.30;;;23.70;47.70;;;;;;4993223;28;20454;-92
2021/08/02 10:38:49;;;;;;;8.50;3.60;;;23.90;48.00;;;;;;4993732;28;20439;-92
2021/08/02 10:41:32;;;;;;;4.47;3.33;;;23.90;46.40;;;;;;4993282;28;20445;-92
2021/08/02 10:44:10;;;;;;;2.40;2.20;;;23.80;46.80;;;;;;5011062;28;20490;-92
2021/08/02 10:46:36;;;;;;;3.30;2.17;;;23.90;47.20;;;;;;4995255;28;20457;-92
2021/08/02 10:49:12;;;;;;;3.07;2.27;;;23.90;48.50;;;;;;4992965;28;20429;-92
2021/08/02 10:51:45;;;;;;;7.13;3.10;;;23.50;48.50;;;;;;4993446;28;20453;-92
2021/08/02 10:54:11;;;;;;;9.80;2.90;;;23.30;49.50;;;;;;4994375;28;20573;-92
2021/08/02 10:56:37;;;;;;;5.70;2.63;;;23.70;49.00;;;;;;5003604;28;20470;-92
2021/08/02 10:59:06;;;;;;;3.50;2.73;;;24.10;47.70;;;;;;4992944;28;20418;-92
2021/08/02 11:01:31;;;;;;;4.03;2.30;;;24.30;46.30;;;;;;4993132;28;20567;-92
2021/08/02 11:04:09;;;;;;;7.73;4.13;;;24.40;46.30;;;;;;4993959;28;20426;-93
2021/08/02 11:06:35;;;;;;;4.67;4.00;;;24.30;45.50;;;;;;4993125;28;20639;-92
2021/08/02 11:09:03;;;;;;;5.60;5.03;;;23.70;45.40;;;;;;4979172;28;20445;-92
2021/08/02 11:11:31;;;;;;;4.87;4.47;;;23.10;44.90;;;;;;4993444;28;20434;-92
2021/08/02 11:14:15;;;;;;;6.40;3.90;;;22.80;45.70;;;;;;4993211;28;20965;-92
2021/08/02 11:16:46;;;;;;;8.63;4.70;;;22.90;47.00;;;;;;4994778;28;20554;-92
2021/08/02 11:19:16;;;;;;;19.43;4.13;;;22.90;47.00;;;;;;4994810;28;20410;-92
2021/08/02 11:21:42;;;;;;;24.30;6.57;;;22.80;46.60;;;;;;4995447;28;20501;-92
2021/08/02 11:24:12;;;;;;;4.33;3.57;;;22.70;47.00;;;;;;4994572;28;20764;-92
2021/08/02 11:26:53;;;;;;;3.47;3.10;;;22.60;45.90;;;;;;4992329;28;20418;-92
2021/08/02 11:29:30;;;;;;;33.20;6.97;;;22.80;45.90;;;;;;4992135;28;20477;-92
2021/08/02 11:32:08;;;;;;;17.37;4.10;;;23.10;46.70;;;;;;4991923;28;20441;-92
2021/08/02 11:34:35;;;;;;;21.57;4.20;;;23.00;46.10;;;;;;4994761;28;20453;-92
2021/08/02 11:37:15;;;;;;;5.43;2.20;;;22.80;46.00;;;;;;4993015;28;20458;-92
2021/08/02 11:39:54;;;;;;;6.10;2.57;;;22.70;43.40;;;;;;4992686;28;20497;-92
2021/08/02 11:42:20;;;;;;;16.47;3.03;;;23.10;42.80;;;;;;4992672;28;20441;-92
2021/08/02 11:44:56;;;;;;;7.30;2.50;;;23.10;44.30;;;;;;4993859;28;20745;-92
2021/08/02 11:47:24;;;;;;;5.17;2.37;;;23.10;43.60;;;;;;4996565;28;20421;-92
2021/08/02 11:49:52;;;;;;;4.73;2.03;;;23.00;43.90;;;;;;5008144;28;20480;-92
2021/08/02 11:52:20;;;;;;;8.00;2.43;;;22.80;44.40;;;;;;5003539;28;20461;-92
2021/08/02 11:54:56;;;;;;;2.80;2.37;;;22.60;45.70;;;;;;4993750;28;20863;-92
2021/08/02 11:57:22;;;;;;;4.70;2.37;;;22.50;46.80;;;;;;4992751;28;20560;-92
2021/08/02 11:59:57;;;;;;;3.97;2.17;;;22.60;46.20;;;;;;4992444;28;20853;-92
2021/08/02 12:02:34;;;;;;;2.53;1.87;;;22.80;46.30;;;;;;4992236;28;20201;-92
2021/08/02 12:05:05;;;;;;;5.43;2.20;;;22.80;45.80;;;;;;4992576;28;20429;-92
2021/08/02 12:07:32;;;;;;;9.87;2.47;;;23.30;45.80;;;;;;4993153;28;20513;-93
2021/08/02 12:10:23;;;;;;;7.57;2.20;;;23.20;45.00;;;;;;4992623;28;20879;-92
2021/08/02 12:13:04;;;;;;;8.73;2.80;;;23.20;44.80;;;;;;4993363;28;20473;-92
2021/08/02 12:15:31;;;;;;;6.00;2.30;;;23.60;45.20;;;;;;4992745;28;20417;-92
2021/08/02 12:17:57;;;;;;;10.13;2.33;;;23.40;44.00;;;;;;4993734;28;20455;-92
2021/08/02 12:20:36;;;;;;;6.73;2.13;;;23.50;43.90;;;;;;4992662;28;20410;-92
2021/08/02 12:23:06;;;;;;;12.20;2.10;;;23.50;43.80;;;;;;4992325;28;20547;-92
2021/08/02 12:25:38;;;;;;;2.93;1.83;;;23.50;43.80;;;;;;4994170;28;20481;-92
2021/08/02 12:28:06;;;;;;;1.83;1.60;;;24.20;43.50;;;;;;4993824;28;20932;-92
2021/08/02 12:30:32;;;;;;;3.80;1.80;;;24.60;42.00;;;;;;4994565;28;20462;-92
2021/08/02 12:32:58;;;;;;;1.47;1.37;;;25.00;39.70;;;;;;4992990;28;20484;-93
2021/08/02 12:35:25;;;;;;;2.13;1.30;;;25.20;39.60;;;;;;4993707;28;20430;-92
2021/08/02 12:37:51;;;;;;;3.43;2.37;;;25.30;39.60;;;;;;4998551;28;20191;-93
2021/08/02 12:40:17;;;;;;;5.73;1.60;;;24.90;37.40;;;;;;4996888;28;20464;-92
2021/08/02 12:42:48;;;;;;;3.20;2.00;;;24.80;38.70;;;;;;4999290;28;20446;-92
2021/08/02 12:45:15;;;;;;;5.30;1.90;;;24.50;38.80;;;;;;5000590;28;20421;-93
2021/08/02 12:47:41;;;;;;;5.90;2.07;;;24.00;39.10;;;;;;5012996;28;21056;-92
2021/08/02 12:50:09;;;;;;;3.57;2.23;;;24.10;40.20;;;;;;5001733;28;20418;-93
2021/08/02 12:52:36;;;;;;;2.70;2.00;;;24.10;40.10;;;;;;5000198;28;20445;-92
2021/08/02 12:55:07;;;;;;;3.00;1.90;;;24.20;39.90;;;;;;5003868;28;20474;-92
2021/08/02 12:57:34;;;;;;;5.33;1.70;;;23.90;39.50;;;;;;5003367;28;20481;-93